Cabot Strait: Past 24 Hour Conditions

 

Port aux Basques

05:30 PM NST 06 March 2015
Disclaimer

This table is a summary of hourly weather conditions for the past 24 hours.
Please note that these observations might not always be representative of weather conditions over their associated marine area.

Date / Time
(NST)
Wind(knots) Conditions Visibility(km) Pressure(kPa) Air tempC) Relative humidity(%) Dew pointC) Wind Chill
06 March 2015
17:30 WNW 25 gust 33 Light Snow 3 102.3 -12 72 -16 -24
16:30 WNW 27 Light Snow 2 102.2 -11 71 -16 -24
15:30 WNW 26 gust 32 Light Snow 1 102.2 -11 66 -16 -23
14:30 WNW 26 gust 37 Light Snow 1 102.1 -11 75 -15 -23
13:30 WNW 30 gust 36 Partly Cloudy 2 102.1 -11 74 -14 -23
12:30 WNW 30 gust 39 Light Snow 0.6 102.1 -11 69 -15 -23
11:30 NW 25 gust 31 Light Snow 1 102.1 -11 84 -14 -23
10:30 NW 29 gust 39 Mainly Sunny 3 102.0 -11 61 -17 -24
9:30 NW 26 gust 32 Mainly Sunny 15 102.0 -12 66 -17 -24
8:30 NW 24 Light Snow 13 101.9 -12 66 -17 -24
7:30 NW 17 gust 27 Sunny 15 101.8 -12 67 -17 -23
6:30 NW 27 Mainly Clear 6 101.7 -13 70 -17 -26
5:30 NW 22 gust 28 Clear 10 101.6 -13 73 -17 -25
4:30 NW 23 gust 30 Light Snow 2 101.5 -13 79 -16 -25
3:30 NW 21 gust 28 Mainly Clear 15 101.5 -13 70 -17 -24
2:30 NW 24 Light Snow 1 101.4 -12 86 -14 -23
1:30 NW 23 gust 31 Mainly Clear 5 101.3 -11 73 -15 -23
0:30 WNW 28 gust 35 Partly Cloudy 2 101.3 -11 71 -15 -23
05 March 2015
23:30 WNW 27 gust 36 Light Snow 0.3 101.2 -11 89 -12 -23
22:30 WNW 35 gust 42 Light Snow 0.5 101.0 -11 82 -13 -24
21:30 WNW 37 gust 48 Light Snow 0.5 101.0 -11 85 -13 -24
20:30 WNW 40 gust 48 Light Snow 0.5 100.9 -10 81 -13 -24
19:30 WNW 33 Light Snow 0.3 100.9 -10 77 -14 -23
18:30 WNW 28 gust 37 Light Snow 0.5 100.8 -10 89 -11 -22
17:30 WNW 31 gust 36 Light Snow 1 100.7 -9 71 -14 -21

Zoom-in to make a selection

Map of Atlantic - Newfoundland marine weather areas Southwestern Grand Banks - 44138 Banquereau - 44139 Tail of the Bank - 44140 Nickerson Bank - 44251 Northeast Burgeo Bank - 44255 Blanc-Sablon Airport Cap Whittle Chevery Natashquan Airport Heath Point Miscou Island Grand Étang Ingonish Beach North Mountain St.Paul Island J.A. Douglas McCurdy Sydney Airport Charlottetown Airport East Point North Cape Argentia Bonavista Burgeo Cape Race Corner Brook Daniel's Harbour Englee Ferolle Point La Scie Port aux Basques Rocky Harbour Sagona Island St. Anthony Airport St. John's Int'l Airport St. Lawrence Stephenville Airport Twillingate Winterland Wreckhouse Cartwright Airport Mary's Harbour Grates Cove Pool's Island Marticot Island Long Pond Îles de la Madeleine Airport
Legend:
buoy Buoy
land station Land Station

Atlantic - Newfoundland Area

Another Region

What we are doing

Date modified: